DTMB/MIR METAR and TAF weather

Enter ICAO airport designator
Station Type Date Time Source
DTMB METAR 2019/08/25 02:30 UTC NOAA

DTMB 250230Z 00000KT CAVOK 25/25 Q1015 NOSIG


Station Type Date Time Source
DTMB Decoded METAR 2019/08/25 02:30 UTC NOAA

Station name not available
Aug 24, 2019 - 10:30 PM EDT / 2019.08.25 0230 UTC
Wind: Calm:0
Visibility: greater than 7 mile(s):0
Temperature: 77 F (25 C)
Dew Point: 77 F (25 C)
Relative Humidity: 100%
Pressure (altimeter): 29.97 in. Hg (1015 hPa)
ob: DTMB 250230Z 00000KT CAVOK 25/25 Q1015 NOSIG
cycle: 2

Station Type Date Time Source
DTMB TAF 2019/08/24 18:45 UTC NOAA

TAF TAF DTMB 241700Z 2418/2518 09012KT 9999 FEW026
BECMG 2419/2421 11005KT
BECMG 2510/2512 05010KT

Example: see airport list